sensor_id;sensor_type;location;lat;lon;timestamp;P1;durP1;ratioP1;P2;durP2;ratioP2
18653;SDS011;9456;47.824;16.228;2023-06-22T00:00:09;17.30;;;14.10;;
18653;SDS011;9456;47.824;16.228;2023-06-22T00:02:39;22.67;;;13.80;;
18653;SDS011;9456;47.824;16.228;2023-06-22T00:05:08;20.30;;;13.27;;
18653;SDS011;9456;47.824;16.228;2023-06-22T00:07:37;16.73;;;13.03;;
18653;SDS011;9456;47.824;16.228;2023-06-22T00:10:07;17.37;;;13.70;;
18653;SDS011;9456;47.824;16.228;2023-06-22T00:12:36;21.43;;;12.90;;
18653;SDS011;9456;47.824;16.228;2023-06-22T00:15:06;18.10;;;12.47;;
18653;SDS011;9456;47.824;16.228;2023-06-22T00:17:35;18.20;;;12.37;;
18653;SDS011;9456;47.824;16.228;2023-06-22T00:20:05;18.93;;;12.20;;
18653;SDS011;9456;47.824;16.228;2023-06-22T00:22:36;19.20;;;12.63;;
18653;SDS011;9456;47.824;16.228;2023-06-22T00:25:07;23.07;;;13.47;;
18653;SDS011;9456;47.824;16.228;2023-06-22T00:27:36;21.03;;;13.20;;
18653;SDS011;9456;47.824;16.228;2023-06-22T00:30:06;18.33;;;13.77;;
18653;SDS011;9456;47.824;16.228;2023-06-22T00:32:36;20.80;;;14.23;;
18653;SDS011;9456;47.824;16.228;2023-06-22T00:35:05;23.07;;;14.00;;
18653;SDS011;9456;47.824;16.228;2023-06-22T00:37:35;20.70;;;14.87;;
18653;SDS011;9456;47.824;16.228;2023-06-22T00:40:04;20.70;;;14.30;;
18653;SDS011;9456;47.824;16.228;2023-06-22T00:42:34;24.37;;;14.43;;
18653;SDS011;9456;47.824;16.228;2023-06-22T00:45:04;18.27;;;13.90;;
18653;SDS011;9456;47.824;16.228;2023-06-22T00:47:34;24.33;;;14.57;;
18653;SDS011;9456;47.824;16.228;2023-06-22T00:50:03;27.60;;;14.63;;
18653;SDS011;9456;47.824;16.228;2023-06-22T00:52:33;21.43;;;14.03;;
18653;SDS011;9456;47.824;16.228;2023-06-22T00:55:02;16.40;;;13.47;;
18653;SDS011;9456;47.824;16.228;2023-06-22T00:57:31;21.53;;;14.17;;
18653;SDS011;9456;47.824;16.228;2023-06-22T01:00:02;23.17;;;13.97;;
18653;SDS011;9456;47.824;16.228;2023-06-22T01:02:33;18.13;;;12.83;;
18653;SDS011;9456;47.824;16.228;2023-06-22T01:05:02;26.10;;;14.40;;
18653;SDS011;9456;47.824;16.228;2023-06-22T01:07:32;16.80;;;12.60;;
18653;SDS011;9456;47.824;16.228;2023-06-22T01:10:07;23.67;;;13.10;;
18653;SDS011;9456;47.824;16.228;2023-06-22T01:12:31;20.80;;;14.17;;
18653;SDS011;9456;47.824;16.228;2023-06-22T01:15:00;16.87;;;12.53;;
18653;SDS011;9456;47.824;16.228;2023-06-22T01:17:29;21.63;;;13.80;;
18653;SDS011;9456;47.824;16.228;2023-06-22T01:19:58;22.30;;;15.27;;
18653;SDS011;9456;47.824;16.228;2023-06-22T01:22:27;19.80;;;13.13;;
18653;SDS011;9456;47.824;16.228;2023-06-22T01:24:57;23.87;;;13.57;;
18653;SDS011;9456;47.824;16.228;2023-06-22T01:27:32;19.67;;;14.00;;
18653;SDS011;9456;47.824;16.228;2023-06-22T01:30:00;21.53;;;14.53;;
18653;SDS011;9456;47.824;16.228;2023-06-22T01:32:30;20.23;;;14.70;;
18653;SDS011;9456;47.824;16.228;2023-06-22T01:34:59;27.50;;;15.37;;
18653;SDS011;9456;47.824;16.228;2023-06-22T01:37:27;20.87;;;14.40;;
18653;SDS011;9456;47.824;16.228;2023-06-22T01:39:56;24.30;;;16.23;;
18653;SDS011;9456;47.824;16.228;2023-06-22T01:42:25;23.47;;;14.77;;
18653;SDS011;9456;47.824;16.228;2023-06-22T01:44:54;26.80;;;15.47;;
18653;SDS011;9456;47.824;16.228;2023-06-22T01:47:23;18.70;;;15.67;;
18653;SDS011;9456;47.824;16.228;2023-06-22T01:49:52;19.07;;;15.30;;
18653;SDS011;9456;47.824;16.228;2023-06-22T01:52:21;23.40;;;15.33;;
18653;SDS011;9456;47.824;16.228;2023-06-22T01:54:51;20.43;;;14.60;;
18653;SDS011;9456;47.824;16.228;2023-06-22T01:57:20;19.20;;;15.10;;
18653;SDS011;9456;47.824;16.228;2023-06-22T01:59:49;20.60;;;15.43;;
18653;SDS011;9456;47.824;16.228;2023-06-22T02:02:21;21.93;;;16.77;;
18653;SDS011;9456;47.824;16.228;2023-06-22T02:04:51;22.70;;;17.93;;
18653;SDS011;9456;47.824;16.228;2023-06-22T02:07:19;19.60;;;15.47;;
18653;SDS011;9456;47.824;16.228;2023-06-22T02:09:48;27.50;;;16.40;;
18653;SDS011;9456;47.824;16.228;2023-06-22T02:12:17;24.90;;;16.53;;
18653;SDS011;9456;47.824;16.228;2023-06-22T02:14:46;22.93;;;15.93;;
18653;SDS011;9456;47.824;16.228;2023-06-22T02:17:16;19.30;;;15.50;;
18653;SDS011;9456;47.824;16.228;2023-06-22T02:19:43;21.40;;;15.03;;
18653;SDS011;9456;47.824;16.228;2023-06-22T02:22:12;20.90;;;15.67;;
18653;SDS011;9456;47.824;16.228;2023-06-22T02:24:41;18.40;;;14.57;;
18653;SDS011;9456;47.824;16.228;2023-06-22T02:27:10;24.33;;;15.07;;
18653;SDS011;9456;47.824;16.228;2023-06-22T02:29:39;20.77;;;14.63;;
18653;SDS011;9456;47.824;16.228;2023-06-22T02:32:08;24.20;;;16.03;;
18653;SDS011;9456;47.824;16.228;2023-06-22T02:34:37;22.03;;;16.37;;
18653;SDS011;9456;47.824;16.228;2023-06-22T02:37:06;22.77;;;14.43;;
18653;SDS011;9456;47.824;16.228;2023-06-22T02:39:35;20.13;;;14.40;;
18653;SDS011;9456;47.824;16.228;2023-06-22T02:42:04;24.17;;;16.47;;
18653;SDS011;9456;47.824;16.228;2023-06-22T02:44:33;18.70;;;14.83;;
18653;SDS011;9456;47.824;16.228;2023-06-22T02:47:02;25.63;;;17.00;;
18653;SDS011;9456;47.824;16.228;2023-06-22T02:49:31;23.60;;;16.30;;
18653;SDS011;9456;47.824;16.228;2023-06-22T02:52:00;23.03;;;16.70;;
18653;SDS011;9456;47.824;16.228;2023-06-22T02:54:29;25.03;;;16.33;;
18653;SDS011;9456;47.824;16.228;2023-06-22T02:56:58;21.03;;;15.93;;
18653;SDS011;9456;47.824;16.228;2023-06-22T02:59:28;22.47;;;15.93;;
18653;SDS011;9456;47.824;16.228;2023-06-22T03:01:57;26.00;;;16.63;;
18653;SDS011;9456;47.824;16.228;2023-06-22T03:09:46;25.27;;;17.27;;
18653;SDS011;9456;47.824;16.228;2023-06-22T03:12:15;24.23;;;16.10;;
18653;SDS011;9456;47.824;16.228;2023-06-22T03:14:44;30.37;;;17.37;;
18653;SDS011;9456;47.824;16.228;2023-06-22T03:17:13;34.03;;;18.17;;
18653;SDS011;9456;47.824;16.228;2023-06-22T03:19:42;27.20;;;18.47;;
18653;SDS011;9456;47.824;16.228;2023-06-22T03:22:11;25.40;;;17.80;;
18653;SDS011;9456;47.824;16.228;2023-06-22T03:24:40;30.47;;;18.57;;
18653;SDS011;9456;47.824;16.228;2023-06-22T03:27:09;23.67;;;17.63;;
18653;SDS011;9456;47.824;16.228;2023-06-22T03:29:38;21.57;;;16.53;;
18653;SDS011;9456;47.824;16.228;2023-06-22T03:32:07;21.93;;;17.30;;
18653;SDS011;9456;47.824;16.228;2023-06-22T03:34:36;26.23;;;17.17;;
18653;SDS011;9456;47.824;16.228;2023-06-22T03:37:05;23.67;;;18.27;;
18653;SDS011;9456;47.824;16.228;2023-06-22T03:39:34;20.80;;;16.30;;
18653;SDS011;9456;47.824;16.228;2023-06-22T03:42:03;25.83;;;18.00;;
18653;SDS011;9456;47.824;16.228;2023-06-22T03:44:33;20.60;;;16.03;;
18653;SDS011;9456;47.824;16.228;2023-06-22T03:47:03;22.53;;;15.63;;
18653;SDS011;9456;47.824;16.228;2023-06-22T03:49:32;26.27;;;17.17;;
18653;SDS011;9456;47.824;16.228;2023-06-22T03:52:01;23.67;;;16.37;;
18653;SDS011;9456;47.824;16.228;2023-06-22T03:54:31;24.20;;;15.57;;
18653;SDS011;9456;47.824;16.228;2023-06-22T03:56:59;22.27;;;16.57;;
18653;SDS011;9456;47.824;16.228;2023-06-22T03:59:28;24.60;;;16.37;;
18653;SDS011;9456;47.824;16.228;2023-06-22T04:01:57;21.40;;;15.10;;
18653;SDS011;9456;47.824;16.228;2023-06-22T04:04:26;26.80;;;16.80;;
18653;SDS011;9456;47.824;16.228;2023-06-22T04:06:59;25.73;;;14.93;;
18653;SDS011;9456;47.824;16.228;2023-06-22T04:09:28;23.37;;;15.53;;
18653;SDS011;9456;47.824;16.228;2023-06-22T04:11:57;23.17;;;14.67;;
18653;SDS011;9456;47.824;16.228;2023-06-22T04:14:26;25.17;;;15.57;;
18653;SDS011;9456;47.824;16.228;2023-06-22T04:16:55;21.03;;;14.23;;
18653;SDS011;9456;47.824;16.228;2023-06-22T04:19:24;25.03;;;16.50;;
18653;SDS011;9456;47.824;16.228;2023-06-22T04:21:53;24.23;;;14.70;;
18653;SDS011;9456;47.824;16.228;2023-06-22T04:24:22;22.43;;;14.30;;
18653;SDS011;9456;47.824;16.228;2023-06-22T04:26:51;22.67;;;15.23;;
18653;SDS011;9456;47.824;16.228;2023-06-22T04:29:20;17.90;;;14.53;;
18653;SDS011;9456;47.824;16.228;2023-06-22T04:31:51;19.87;;;15.33;;
18653;SDS011;9456;47.824;16.228;2023-06-22T04:34:19;20.03;;;14.33;;
18653;SDS011;9456;47.824;16.228;2023-06-22T04:36:48;23.37;;;14.87;;
18653;SDS011;9456;47.824;16.228;2023-06-22T04:39:17;19.87;;;13.37;;
18653;SDS011;9456;47.824;16.228;2023-06-22T04:41:46;26.83;;;15.00;;
18653;SDS011;9456;47.824;16.228;2023-06-22T04:44:16;22.03;;;15.30;;
18653;SDS011;9456;47.824;16.228;2023-06-22T04:46:45;21.13;;;14.20;;
18653;SDS011;9456;47.824;16.228;2023-06-22T04:49:14;20.83;;;14.70;;
18653;SDS011;9456;47.824;16.228;2023-06-22T04:51:43;18.60;;;14.40;;
18653;SDS011;9456;47.824;16.228;2023-06-22T04:54:12;20.70;;;14.83;;
18653;SDS011;9456;47.824;16.228;2023-06-22T04:56:41;21.57;;;14.67;;
18653;SDS011;9456;47.824;16.228;2023-06-22T04:59:10;19.73;;;13.37;;
18653;SDS011;9456;47.824;16.228;2023-06-22T05:01:40;16.23;;;12.90;;
18653;SDS011;9456;47.824;16.228;2023-06-22T05:04:09;19.83;;;13.57;;
18653;SDS011;9456;47.824;16.228;2023-06-22T05:06:38;19.10;;;14.57;;
18653;SDS011;9456;47.824;16.228;2023-06-22T05:09:07;24.30;;;15.20;;
18653;SDS011;9456;47.824;16.228;2023-06-22T05:11:36;19.43;;;13.73;;
18653;SDS011;9456;47.824;16.228;2023-06-22T05:14:05;22.70;;;13.07;;
18653;SDS011;9456;47.824;16.228;2023-06-22T05:16:35;22.27;;;13.17;;
18653;SDS011;9456;47.824;16.228;2023-06-22T05:19:03;19.33;;;11.83;;
18653;SDS011;9456;47.824;16.228;2023-06-22T05:21:32;22.27;;;12.10;;
18653;SDS011;9456;47.824;16.228;2023-06-22T05:24:01;20.80;;;12.07;;
18653;SDS011;9456;47.824;16.228;2023-06-22T05:26:30;18.37;;;12.63;;
18653;SDS011;9456;47.824;16.228;2023-06-22T05:28:59;21.93;;;13.13;;
18653;SDS011;9456;47.824;16.228;2023-06-22T05:31:28;19.50;;;14.00;;
18653;SDS011;9456;47.824;16.228;2023-06-22T05:33:57;26.60;;;14.67;;
18653;SDS011;9456;47.824;16.228;2023-06-22T05:36:27;20.53;;;14.23;;
18653;SDS011;9456;47.824;16.228;2023-06-22T05:38:57;19.70;;;13.87;;
18653;SDS011;9456;47.824;16.228;2023-06-22T05:41:26;22.20;;;14.60;;
18653;SDS011;9456;47.824;16.228;2023-06-22T05:43:54;20.67;;;14.23;;
18653;SDS011;9456;47.824;16.228;2023-06-22T05:46:23;19.47;;;14.00;;
18653;SDS011;9456;47.824;16.228;2023-06-22T05:48:52;23.60;;;14.37;;
18653;SDS011;9456;47.824;16.228;2023-06-22T05:51:21;21.70;;;14.43;;
18653;SDS011;9456;47.824;16.228;2023-06-22T05:53:50;19.73;;;13.07;;
18653;SDS011;9456;47.824;16.228;2023-06-22T05:56:19;18.57;;;13.67;;
18653;SDS011;9456;47.824;16.228;2023-06-22T05:58:48;26.83;;;14.63;;
18653;SDS011;9456;47.824;16.228;2023-06-22T06:01:17;23.90;;;14.60;;
18653;SDS011;9456;47.824;16.228;2023-06-22T06:03:46;25.63;;;14.63;;
18653;SDS011;9456;47.824;16.228;2023-06-22T06:06:15;24.73;;;15.00;;
18653;SDS011;9456;47.824;16.228;2023-06-22T06:08:44;21.47;;;15.07;;
18653;SDS011;9456;47.824;16.228;2023-06-22T06:11:21;18.70;;;14.57;;
18653;SDS011;9456;47.824;16.228;2023-06-22T06:13:50;27.17;;;15.63;;
18653;SDS011;9456;47.824;16.228;2023-06-22T06:16:18;21.43;;;15.77;;
18653;SDS011;9456;47.824;16.228;2023-06-22T06:18:47;21.57;;;14.73;;
18653;SDS011;9456;47.824;16.228;2023-06-22T06:21:17;23.57;;;15.40;;
18653;SDS011;9456;47.824;16.228;2023-06-22T06:23:45;26.40;;;16.63;;
18653;SDS011;9456;47.824;16.228;2023-06-22T06:26:14;18.73;;;15.03;;
18653;SDS011;9456;47.824;16.228;2023-06-22T06:28:43;25.37;;;17.17;;
18653;SDS011;9456;47.824;16.228;2023-06-22T06:31:12;23.13;;;16.57;;
18653;SDS011;9456;47.824;16.228;2023-06-22T06:33:41;21.47;;;14.60;;
18653;SDS011;9456;47.824;16.228;2023-06-22T06:36:10;22.53;;;13.77;;
18653;SDS011;9456;47.824;16.228;2023-06-22T06:38:39;18.83;;;12.83;;
18653;SDS011;9456;47.824;16.228;2023-06-22T06:41:08;20.20;;;14.03;;
18653;SDS011;9456;47.824;16.228;2023-06-22T06:43:37;20.07;;;12.07;;
18653;SDS011;9456;47.824;16.228;2023-06-22T06:46:06;15.90;;;11.47;;
18653;SDS011;9456;47.824;16.228;2023-06-22T06:48:35;16.20;;;10.47;;
18653;SDS011;9456;47.824;16.228;2023-06-22T06:51:03;18.90;;;10.87;;
18653;SDS011;9456;47.824;16.228;2023-06-22T06:53:32;13.77;;;8.93;;
18653;SDS011;9456;47.824;16.228;2023-06-22T06:56:01;16.63;;;10.13;;
18653;SDS011;9456;47.824;16.228;2023-06-22T06:58:31;15.47;;;10.50;;
18653;SDS011;9456;47.824;16.228;2023-06-22T07:01:00;20.53;;;10.97;;
18653;SDS011;9456;47.824;16.228;2023-06-22T07:03:29;20.70;;;10.70;;
18653;SDS011;9456;47.824;16.228;2023-06-22T07:05:58;16.63;;;10.13;;
18653;SDS011;9456;47.824;16.228;2023-06-22T07:08:27;15.27;;;8.63;;
18653;SDS011;9456;47.824;16.228;2023-06-22T07:10:56;15.53;;;8.80;;
18653;SDS011;9456;47.824;16.228;2023-06-22T07:13:26;16.00;;;8.33;;
18653;SDS011;9456;47.824;16.228;2023-06-22T07:15:55;15.53;;;8.10;;
18653;SDS011;9456;47.824;16.228;2023-06-22T07:18:24;14.50;;;8.63;;
18653;SDS011;9456;47.824;16.228;2023-06-22T07:20:53;15.83;;;8.53;;
18653;SDS011;9456;47.824;16.228;2023-06-22T07:23:22;18.33;;;7.83;;
18653;SDS011;9456;47.824;16.228;2023-06-22T07:25:51;10.43;;;7.07;;
18653;SDS011;9456;47.824;16.228;2023-06-22T07:28:20;21.33;;;7.50;;
18653;SDS011;9456;47.824;16.228;2023-06-22T07:30:49;16.47;;;7.53;;
18653;SDS011;9456;47.824;16.228;2023-06-22T07:33:18;21.17;;;7.97;;
18653;SDS011;9456;47.824;16.228;2023-06-22T07:35:47;14.93;;;7.43;;
18653;SDS011;9456;47.824;16.228;2023-06-22T07:38:16;17.07;;;7.77;;
18653;SDS011;9456;47.824;16.228;2023-06-22T07:40:45;13.67;;;7.93;;
18653;SDS011;9456;47.824;16.228;2023-06-22T07:43:14;13.80;;;6.93;;
18653;SDS011;9456;47.824;16.228;2023-06-22T07:45:46;16.20;;;7.47;;
18653;SDS011;9456;47.824;16.228;2023-06-22T07:48:19;16.63;;;7.70;;
18653;SDS011;9456;47.824;16.228;2023-06-22T07:50:48;13.43;;;7.30;;
18653;SDS011;9456;47.824;16.228;2023-06-22T07:53:17;11.73;;;7.63;;
18653;SDS011;9456;47.824;16.228;2023-06-22T07:55:46;13.70;;;7.33;;
18653;SDS011;9456;47.824;16.228;2023-06-22T07:58:15;12.40;;;7.27;;
18653;SDS011;9456;47.824;16.228;2023-06-22T08:00:44;11.30;;;7.77;;
18653;SDS011;9456;47.824;16.228;2023-06-22T08:03:13;16.63;;;7.57;;
18653;SDS011;9456;47.824;16.228;2023-06-22T08:05:42;13.63;;;7.00;;
18653;SDS011;9456;47.824;16.228;2023-06-22T08:08:11;17.03;;;7.57;;
18653;SDS011;9456;47.824;16.228;2023-06-22T08:10:40;13.47;;;6.77;;
18653;SDS011;9456;47.824;16.228;2023-06-22T08:13:09;18.50;;;7.63;;
18653;SDS011;9456;47.824;16.228;2023-06-22T08:15:44;15.37;;;7.43;;
18653;SDS011;9456;47.824;16.228;2023-06-22T08:18:13;12.57;;;6.37;;
18653;SDS011;9456;47.824;16.228;2023-06-22T08:20:42;12.17;;;6.33;;
18653;SDS011;9456;47.824;16.228;2023-06-22T08:23:11;10.73;;;6.20;;
18653;SDS011;9456;47.824;16.228;2023-06-22T08:25:40;17.43;;;6.73;;
18653;SDS011;9456;47.824;16.228;2023-06-22T08:28:09;10.67;;;5.53;;
18653;SDS011;9456;47.824;16.228;2023-06-22T08:30:38;10.97;;;5.50;;
18653;SDS011;9456;47.824;16.228;2023-06-22T08:33:07;14.37;;;6.33;;
18653;SDS011;9456;47.824;16.228;2023-06-22T08:35:35;11.67;;;5.73;;
18653;SDS011;9456;47.824;16.228;2023-06-22T08:38:05;11.63;;;5.63;;
18653;SDS011;9456;47.824;16.228;2023-06-22T08:40:34;13.27;;;6.40;;
18653;SDS011;9456;47.824;16.228;2023-06-22T08:43:02;15.87;;;5.50;;
18653;SDS011;9456;47.824;16.228;2023-06-22T08:45:32;12.57;;;5.70;;
18653;SDS011;9456;47.824;16.228;2023-06-22T08:48:01;11.60;;;5.50;;
18653;SDS011;9456;47.824;16.228;2023-06-22T08:50:30;14.83;;;5.60;;
18653;SDS011;9456;47.824;16.228;2023-06-22T08:52:59;13.83;;;5.97;;
18653;SDS011;9456;47.824;16.228;2023-06-22T08:55:28;12.13;;;5.50;;
18653;SDS011;9456;47.824;16.228;2023-06-22T08:57:57;12.97;;;6.27;;
18653;SDS011;9456;47.824;16.228;2023-06-22T09:00:26;11.83;;;5.77;;
18653;SDS011;9456;47.824;16.228;2023-06-22T09:02:55;11.23;;;5.40;;
18653;SDS011;9456;47.824;16.228;2023-06-22T09:05:24;12.40;;;5.70;;
18653;SDS011;9456;47.824;16.228;2023-06-22T09:07:53;8.63;;;5.13;;
18653;SDS011;9456;47.824;16.228;2023-06-22T09:10:22;14.67;;;6.00;;
18653;SDS011;9456;47.824;16.228;2023-06-22T09:12:51;11.73;;;5.57;;
18653;SDS011;9456;47.824;16.228;2023-06-22T09:15:20;11.97;;;4.87;;
18653;SDS011;9456;47.824;16.228;2023-06-22T09:17:51;14.77;;;5.13;;
18653;SDS011;9456;47.824;16.228;2023-06-22T09:20:21;14.60;;;5.53;;
18653;SDS011;9456;47.824;16.228;2023-06-22T09:22:50;9.67;;;5.33;;
18653;SDS011;9456;47.824;16.228;2023-06-22T09:25:19;12.50;;;5.40;;
18653;SDS011;9456;47.824;16.228;2023-06-22T09:27:48;13.40;;;5.73;;
18653;SDS011;9456;47.824;16.228;2023-06-22T09:30:18;10.70;;;5.07;;
18653;SDS011;9456;47.824;16.228;2023-06-22T09:32:46;12.50;;;5.07;;
18653;SDS011;9456;47.824;16.228;2023-06-22T09:35:15;13.03;;;5.10;;
18653;SDS011;9456;47.824;16.228;2023-06-22T09:37:44;16.53;;;4.93;;
18653;SDS011;9456;47.824;16.228;2023-06-22T09:40:13;13.90;;;5.30;;
18653;SDS011;9456;47.824;16.228;2023-06-22T09:42:42;12.63;;;5.40;;
18653;SDS011;9456;47.824;16.228;2023-06-22T09:45:11;16.13;;;5.60;;
18653;SDS011;9456;47.824;16.228;2023-06-22T09:47:40;15.03;;;4.73;;
18653;SDS011;9456;47.824;16.228;2023-06-22T09:50:09;10.97;;;5.17;;
18653;SDS011;9456;47.824;16.228;2023-06-22T09:52:38;11.83;;;5.23;;
18653;SDS011;9456;47.824;16.228;2023-06-22T09:55:08;10.90;;;4.97;;
18653;SDS011;9456;47.824;16.228;2023-06-22T09:57:37;9.20;;;5.00;;
18653;SDS011;9456;47.824;16.228;2023-06-22T10:00:07;11.27;;;5.10;;
18653;SDS011;9456;47.824;16.228;2023-06-22T10:02:38;12.47;;;4.93;;
18653;SDS011;9456;47.824;16.228;2023-06-22T10:05:07;13.10;;;6.00;;
18653;SDS011;9456;47.824;16.228;2023-06-22T10:07:36;15.20;;;4.90;;
18653;SDS011;9456;47.824;16.228;2023-06-22T10:10:07;9.90;;;4.73;;
18653;SDS011;9456;47.824;16.228;2023-06-22T10:12:37;16.50;;;5.20;;
18653;SDS011;9456;47.824;16.228;2023-06-22T10:15:07;10.97;;;4.97;;
18653;SDS011;9456;47.824;16.228;2023-06-22T10:17:36;11.60;;;5.47;;
18653;SDS011;9456;47.824;16.228;2023-06-22T10:20:08;11.50;;;4.97;;
18653;SDS011;9456;47.824;16.228;2023-06-22T10:22:40;13.37;;;5.20;;
18653;SDS011;9456;47.824;16.228;2023-06-22T10:25:09;7.50;;;4.57;;
18653;SDS011;9456;47.824;16.228;2023-06-22T10:27:38;11.40;;;5.67;;
18653;SDS011;9456;47.824;16.228;2023-06-22T10:30:08;9.80;;;4.50;;
18653;SDS011;9456;47.824;16.228;2023-06-22T10:32:38;11.93;;;4.93;;
18653;SDS011;9456;47.824;16.228;2023-06-22T10:35:08;13.93;;;5.37;;
18653;SDS011;9456;47.824;16.228;2023-06-22T10:37:37;12.63;;;5.30;;
18653;SDS011;9456;47.824;16.228;2023-06-22T10:40:08;11.80;;;5.27;;
18653;SDS011;9456;47.824;16.228;2023-06-22T10:42:37;9.53;;;4.50;;
18653;SDS011;9456;47.824;16.228;2023-06-22T10:45:07;9.90;;;4.80;;
18653;SDS011;9456;47.824;16.228;2023-06-22T10:47:37;12.73;;;5.67;;
18653;SDS011;9456;47.824;16.228;2023-06-22T10:50:07;13.50;;;5.90;;
18653;SDS011;9456;47.824;16.228;2023-06-22T10:52:36;11.73;;;6.00;;
18653;SDS011;9456;47.824;16.228;2023-06-22T10:55:06;13.53;;;5.73;;
18653;SDS011;9456;47.824;16.228;2023-06-22T10:57:35;13.43;;;5.90;;
18653;SDS011;9456;47.824;16.228;2023-06-22T11:00:05;13.33;;;5.57;;
18653;SDS011;9456;47.824;16.228;2023-06-22T11:02:36;17.07;;;6.43;;
18653;SDS011;9456;47.824;16.228;2023-06-22T11:05:05;10.77;;;5.77;;
18653;SDS011;9456;47.824;16.228;2023-06-22T11:07:35;11.30;;;6.10;;
18653;SDS011;9456;47.824;16.228;2023-06-22T11:10:04;13.23;;;5.97;;
18653;SDS011;9456;47.824;16.228;2023-06-22T11:12:35;15.10;;;6.43;;
18653;SDS011;9456;47.824;16.228;2023-06-22T11:15:05;15.80;;;6.07;;
18653;SDS011;9456;47.824;16.228;2023-06-22T11:17:35;11.60;;;6.30;;
18653;SDS011;9456;47.824;16.228;2023-06-22T11:20:05;12.73;;;6.17;;
18653;SDS011;9456;47.824;16.228;2023-06-22T11:22:36;13.93;;;7.03;;
18653;SDS011;9456;47.824;16.228;2023-06-22T11:25:06;14.10;;;6.60;;
18653;SDS011;9456;47.824;16.228;2023-06-22T11:27:35;17.57;;;6.63;;
18653;SDS011;9456;47.824;16.228;2023-06-22T11:30:05;18.10;;;6.83;;
18653;SDS011;9456;47.824;16.228;2023-06-22T11:32:35;14.33;;;7.33;;
18653;SDS011;9456;47.824;16.228;2023-06-22T11:35:04;13.00;;;6.80;;
18653;SDS011;9456;47.824;16.228;2023-06-22T11:37:33;12.03;;;6.73;;
18653;SDS011;9456;47.824;16.228;2023-06-22T11:40:02;14.43;;;7.63;;
18653;SDS011;9456;47.824;16.228;2023-06-22T11:42:32;14.33;;;7.03;;
18653;SDS011;9456;47.824;16.228;2023-06-22T11:45:01;17.60;;;6.53;;
18653;SDS011;9456;47.824;16.228;2023-06-22T11:47:31;20.67;;;7.10;;
18653;SDS011;9456;47.824;16.228;2023-06-22T11:50:00;13.83;;;6.63;;
18653;SDS011;9456;47.824;16.228;2023-06-22T11:52:29;12.10;;;6.50;;
18653;SDS011;9456;47.824;16.228;2023-06-22T11:54:58;14.17;;;7.13;;
18653;SDS011;9456;47.824;16.228;2023-06-22T11:57:26;14.97;;;7.07;;
18653;SDS011;9456;47.824;16.228;2023-06-22T11:59:55;12.53;;;6.83;;
18653;SDS011;9456;47.824;16.228;2023-06-22T12:02:24;12.97;;;6.47;;
18653;SDS011;9456;47.824;16.228;2023-06-22T12:04:53;13.03;;;6.77;;
18653;SDS011;9456;47.824;16.228;2023-06-22T12:07:22;20.60;;;7.60;;
18653;SDS011;9456;47.824;16.228;2023-06-22T12:09:51;15.27;;;6.90;;
18653;SDS011;9456;47.824;16.228;2023-06-22T12:12:20;15.33;;;7.67;;
18653;SDS011;9456;47.824;16.228;2023-06-22T12:14:49;12.67;;;7.07;;
18653;SDS011;9456;47.824;16.228;2023-06-22T12:17:18;13.00;;;6.80;;
18653;SDS011;9456;47.824;16.228;2023-06-22T12:19:47;14.50;;;6.73;;
18653;SDS011;9456;47.824;16.228;2023-06-22T12:22:15;15.40;;;7.40;;
18653;SDS011;9456;47.824;16.228;2023-06-22T12:24:45;15.80;;;7.37;;
18653;SDS011;9456;47.824;16.228;2023-06-22T12:27:14;14.17;;;7.77;;
18653;SDS011;9456;47.824;16.228;2023-06-22T12:29:44;22.17;;;7.70;;
18653;SDS011;9456;47.824;16.228;2023-06-22T12:32:13;14.50;;;7.33;;
18653;SDS011;9456;47.824;16.228;2023-06-22T12:34:42;14.00;;;7.70;;
18653;SDS011;9456;47.824;16.228;2023-06-22T12:37:11;15.47;;;8.17;;
18653;SDS011;9456;47.824;16.228;2023-06-22T12:39:41;14.57;;;7.77;;
18653;SDS011;9456;47.824;16.228;2023-06-22T12:42:09;15.70;;;7.70;;
18653;SDS011;9456;47.824;16.228;2023-06-22T12:44:39;16.83;;;8.37;;
18653;SDS011;9456;47.824;16.228;2023-06-22T12:47:08;19.53;;;7.90;;
18653;SDS011;9456;47.824;16.228;2023-06-22T12:49:36;15.30;;;9.07;;
18653;SDS011;9456;47.824;16.228;2023-06-22T12:52:09;16.30;;;9.03;;
18653;SDS011;9456;47.824;16.228;2023-06-22T12:54:38;14.33;;;8.60;;
18653;SDS011;9456;47.824;16.228;2023-06-22T12:57:07;15.37;;;8.20;;
18653;SDS011;9456;47.824;16.228;2023-06-22T12:59:36;18.70;;;8.80;;
18653;SDS011;9456;47.824;16.228;2023-06-22T13:02:05;16.73;;;9.43;;
18653;SDS011;9456;47.824;16.228;2023-06-22T13:04:34;16.30;;;8.23;;
18653;SDS011;9456;47.824;16.228;2023-06-22T13:07:03;15.93;;;8.70;;
18653;SDS011;9456;47.824;16.228;2023-06-22T13:09:32;15.00;;;8.93;;
18653;SDS011;9456;47.824;16.228;2023-06-22T13:12:01;12.77;;;8.50;;
18653;SDS011;9456;47.824;16.228;2023-06-22T13:14:30;14.23;;;8.10;;
18653;SDS011;9456;47.824;16.228;2023-06-22T13:16:59;16.13;;;8.67;;
18653;SDS011;9456;47.824;16.228;2023-06-22T13:19:28;14.37;;;8.67;;
18653;SDS011;9456;47.824;16.228;2023-06-22T13:21:57;18.73;;;8.80;;
18653;SDS011;9456;47.824;16.228;2023-06-22T13:24:26;14.67;;;9.00;;
18653;SDS011;9456;47.824;16.228;2023-06-22T13:26:56;24.07;;;9.00;;
18653;SDS011;9456;47.824;16.228;2023-06-22T13:29:25;15.27;;;8.77;;
18653;SDS011;9456;47.824;16.228;2023-06-22T13:31:57;16.10;;;8.63;;
18653;SDS011;9456;47.824;16.228;2023-06-22T13:34:26;15.73;;;8.67;;
18653;SDS011;9456;47.824;16.228;2023-06-22T13:36:54;12.77;;;8.70;;
18653;SDS011;9456;47.824;16.228;2023-06-22T13:39:23;17.23;;;8.97;;
18653;SDS011;9456;47.824;16.228;2023-06-22T13:41:52;15.97;;;8.37;;
18653;SDS011;9456;47.824;16.228;2023-06-22T13:44:21;17.57;;;9.27;;
18653;SDS011;9456;47.824;16.228;2023-06-22T13:46:50;18.37;;;9.07;;
18653;SDS011;9456;47.824;16.228;2023-06-22T13:49:19;21.30;;;8.97;;
18653;SDS011;9456;47.824;16.228;2023-06-22T13:51:49;12.90;;;8.97;;
18653;SDS011;9456;47.824;16.228;2023-06-22T13:54:17;17.97;;;9.40;;
18653;SDS011;9456;47.824;16.228;2023-06-22T13:56:46;19.80;;;9.67;;
18653;SDS011;9456;47.824;16.228;2023-06-22T13:59:15;11.30;;;9.37;;
18653;SDS011;9456;47.824;16.228;2023-06-22T14:01:44;16.23;;;9.07;;
18653;SDS011;9456;47.824;16.228;2023-06-22T14:04:13;18.80;;;9.63;;
18653;SDS011;9456;47.824;16.228;2023-06-22T14:06:42;15.80;;;9.20;;
18653;SDS011;9456;47.824;16.228;2023-06-22T14:09:11;14.80;;;9.93;;
18653;SDS011;9456;47.824;16.228;2023-06-22T14:11:40;17.40;;;10.67;;
18653;SDS011;9456;47.824;16.228;2023-06-22T14:14:09;23.37;;;9.80;;
18653;SDS011;9456;47.824;16.228;2023-06-22T14:16:38;18.93;;;9.93;;
18653;SDS011;9456;47.824;16.228;2023-06-22T14:19:07;12.33;;;8.97;;
18653;SDS011;9456;47.824;16.228;2023-06-22T14:21:35;22.87;;;9.30;;
18653;SDS011;9456;47.824;16.228;2023-06-22T14:24:05;17.80;;;8.80;;
18653;SDS011;9456;47.824;16.228;2023-06-22T14:26:34;25.87;;;9.60;;
18653;SDS011;9456;47.824;16.228;2023-06-22T14:29:04;23.70;;;9.77;;
18653;SDS011;9456;47.824;16.228;2023-06-22T14:31:32;19.40;;;9.73;;
18653;SDS011;9456;47.824;16.228;2023-06-22T14:34:01;17.40;;;10.20;;
18653;SDS011;9456;47.824;16.228;2023-06-22T14:36:30;14.80;;;9.47;;
18653;SDS011;9456;47.824;16.228;2023-06-22T14:38:59;16.50;;;9.67;;
18653;SDS011;9456;47.824;16.228;2023-06-22T14:41:28;23.90;;;9.83;;
18653;SDS011;9456;47.824;16.228;2023-06-22T14:43:57;13.60;;;9.57;;